Wetterstation Vordersexau
Wetterdaten: Mai 2018
Datum Temp. A. Feuchte A. Luftdruck Regen Wind Richtung Taupunkt Windchill Windben
01.05.2018 11,8 C 61 % 1010,7 hPa 0,0 l/m 5,1 km/h N-NO 4,3 C 10,3 C 2,8 km/h
02.05.2018 11,8 C 66 % 1009,2 hPa 0,0 l/m 2,1 km/h N-NW 5,6 C 11,4 C 1,2 km/h
03.05.2018 13,3 C 74 % 1011,4 hPa 0,5 l/m 1,4 km/h O-SO 8,5 C 13,0 C 0,8 km/h
04.05.2018 17,3 C 62 % 1013,4 hPa 0,0 l/m 2,3 km/h N-NO 9,8 C 17,2 C 1,3 km/h
05.05.2018 18,9 C 58 % 1015,0 hPa 0,0 l/m 2,9 km/h NO 10,2 C 18,7 C 1,6 km/h
06.05.2018 20,1 C 58 % 1015,4 hPa 0,0 l/m 3,0 km/h NO 10,7 C 19,8 C 1,6 km/h
07.05.2018 19,1 C 51 % 1012,2 hPa 0,0 l/m 2,7 km/h O-NO 8,0 C 18,9 C 1,5 km/h
08.05.2018 19,5 C 53 % 1006,1 hPa 0,0 l/m 0,7 km/h NO 9,2 C 19,5 C 0,4 km/h
09.05.2018 17,8 C 59 % 1003,7 hPa 0,0 l/m 0,0 km/h O-NO 9,5 C 17,8 C 0,0 km/h
10.05.2018 12,4 C 80 % 1010,3 hPa 20,7 l/m 1,4 km/h SO 9,1 C 12,1 C 0,8 km/h
11.05.2018 14,9 C 73 % 1014,8 hPa 0,0 l/m 0,9 km/h O-NO 9,8 C 14,8 C 0,5 km/h
12.05.2018 18,0 C 72 % 1010,5 hPa 0,0 l/m 0,0 km/h O-NO 12,6 C 18,0 C 0,0 km/h
13.05.2018 12,6 C 81 % 1008,6 hPa 4,1 l/m 0,9 km/h W-SW 9,5 C 12,4 C 0,5 km/h
14.05.2018 11,2 C 81 % 1007,4 hPa 14,0 l/m 0,0 km/h W-SW 8,0 C 11,2 C 0,0 km/h
15.05.2018 13,5 C 78 % 1009,5 hPa 4,7 l/m 0,0 km/h SW 9,7 C 13,5 C 0,0 km/h
16.05.2018 12,1 C 78 % 1012,4 hPa 13,5 l/m 0,0 km/h O 8,3 C 12,1 C 0,0 km/h
17.05.2018 13,6 C 75 % 1015,5 hPa 4,1 l/m 0,0 km/h N-NO 9,2 C 13,6 C 0,0 km/h
18.05.2018 11,5 C 81 % 1008,2 hPa 4,1 l/m 0,0 km/h SW 8,3 C 11,5 C 0,0 km/h
19.05.2018 13,5 C 78 % 1009,5 hPa 4,7 l/m 0,0 km/h SW 9,7 C 13,5 C 0,0 km/h
20.05.2018 12,1 C 78 % 1012,4 hPa 13,5 l/m 0,0 km/h O 8,3 C 12,1 C 0,0 km/h
21.05.2018 13,6 C 75 % 1015,5 hPa 4,1 l/m 0,0 km/h N-NO 9,2 C 13,6 C 0,0 km/h
22.05.2018 16,6 C 75 % 1010,6 hPa 1,0 l/m 0,0 km/h SO 12,0 C 16,6 C 0,0 km/h
23.05.2018 16,6 C 81 % 1014,0 hPa 1,0 l/m 0,0 km/h O-SO 13,2 C 16,6 C 0,0 km/h
24.05.2018 18,6 C 69 % 1014,7 hPa 10,9 l/m 0,0 km/h SO 12,7 C 18,6 C 0,0 km/h
25.05.2018 20,2 C 69 % 1014,5 hPa 0,0 l/m 0,0 km/h N-NW 14,0 C 20,2 C 0,0 km/h
26.05.2018 21,3 C 70 % 1015,6 hPa 0,0 l/m 0,0 km/h O-NO 15,4 C 21,3 C 0,0 km/h
27.05.2018 22,5 C 68 % 1014,3 hPa 0,0 l/m 0,0 km/h O-NO 16,1 C 22,5 C 0,0 km/h
28.05.2018 22,0 C 74 % 1012,6 hPa 0,0 l/m 0,5 km/h N-NW 17,0 C 22,0 C 0,3 km/h
29.05.2018 20,2 C 73 % 1012,0 hPa 0,0 l/m 3,3 km/h W-SW 15,2 C 19,8 C 1,9 km/h
30.05.2018 21,2 C 70 % 1010,9 hPa 2,1 l/m 0,4 km/h SO 15,2 C 21,2 C 0,2 km/h
31.05.2018 19,9 C 77 % 1012,4 hPa 10,9 l/m 3,2 km/h W-SW 15,6 C 19,3 C 1,8 km/h
Min-Datum 02.05.18 07.05.18 09.05.18 16 Tage 01.05.18 - 02.05.18 01.05.18 01.05.18
Min-Zeit 01:53 16:53 16:53 - 07:53 - 00:53 02:53 07:53
Minimum 7,4 C 30 % 1002,2 hPa - 0,0 km/h - 2,8 C 2,2 C 0,0 km/h
Max-Datum 30.05.18 03.05.18 10.05.18 10.05.18 01.05.18 - 28.05.18 30.05.18 01.05.18
Max-Zeit 16:53 04:53 23:53 11:53 02:53 - 17:53 16:53 02:53
Maximum 28,8 C 84 % 1018,1 hPa 20,7 l/m 27,9 km/h
N-NO
- 19,7 C 28,5 C 15,5 km/h
N-NO
Durchschnitt 16,4 C 71 % 1011,7 hPa #114,0 l/m 1,0 km/h SO 10,8 C 16,2 C 0,6 km/h

Durchschnitt Minimum Temp.11,5 C
Durchschnitt Maximum Temp.21,9 C
www.sexauwetter.de